Current Conditions
Clear
Conditions



Pressure
1008.92 (mb) - 29.79 (inHG)
Visibility

6.2 (miles) - 10.0 (km)
   Temperature
20  °C
Temperature
9  °C
Dewpoint
49  %
 Humidity
   Wind Speed
10  mph
9  kts
16  km/h
4.5  m/s
   Wind Direction
N
45°
E
90°
135°
S
180°
225°
W
270°
315°
 50°

North East
   Airport Data
EGGD
Bristol Airport
Metar :EGGD 140620Z AUTO 05009KT 9999 NCD 20/09 Q1009
Sun 14th August 07:20 am
   Raw Metar Info
Raw METAR is the most common format in the world for the transmission of observational weather data. It is highly standardized through the International Civil Aviation Organization (ICAO), which allows it to be understood throughout most of the world.
   API Info
Data Provided by
https://www.checkwx.com/weather/EGGD

Aviation Weather providing METAR, TAF, AIRMET, SIGMET and OUTLOOK Weather Reports
   © Info
CSS/SVG/PHP scripts were developed by weather34.com for use in the weather34 template © 2015-2022

Guide Info provided by Metar-Wikipedia